Time;durP1;ratioP1;P1;durP2;ratioP2;P2;SDS_P1;SDS_P2;PMS_P1;PMS_P2;Temp;Humidity;BMP_temperature;BMP_pressure;BME280_temperature;BME280_humidity;BME280_pressure;Samples;Min_cycle;Max_cycle;Signal;HPM_P1;HPM_P2
2022/06/29 00:00:35;;;;;;;5.40;1.58;;;;;;;16.41;61.14;101337.25;5117227;27;20535;-71
2022/06/29 00:03:02;;;;;;;4.50;1.60;;;;;;;16.50;60.65;101324.47;5134938;27;20079;-71
2022/06/29 00:05:29;;;;;;;4.53;1.83;;;;;;;16.45;60.99;101340.44;5135504;27;20077;-71
2022/06/29 00:07:56;;;;;;;3.13;1.83;;;;;;;16.37;61.47;101321.56;5135300;27;20383;-71
2022/06/29 00:10:24;;;;;;;3.08;1.58;;;;;;;16.39;61.38;101327.63;5116622;27;20130;-71
2022/06/29 00:12:51;;;;;;;4.05;1.50;;;;;;;16.40;61.31;101326.56;5134801;27;20133;-71
2022/06/29 00:15:19;;;;;;;5.85;1.40;;;;;;;16.39;61.60;101323.03;5135445;27;20057;-71
2022/06/29 00:17:46;;;;;;;6.32;2.03;;;;;;;16.34;61.91;101321.91;5134747;27;20075;-71
2022/06/29 00:20:13;;;;;;;3.03;1.50;;;;;;;16.42;61.32;101322.66;5135108;27;20055;-71
2022/06/29 00:22:41;;;;;;;5.22;1.98;;;;;;;16.31;61.77;101312.28;5134932;27;20134;-71
2022/06/29 00:25:09;;;;;;;3.67;1.60;;;;;;;16.14;62.68;101308.88;5135123;27;20078;-71
2022/06/29 00:27:36;;;;;;;2.00;1.40;;;;;;;16.16;62.52;101296.03;5134755;27;20082;-71
2022/06/29 00:30:04;;;;;;;5.25;1.50;;;;;;;16.11;62.55;101297.59;5134932;28;20490;-71
2022/06/29 00:32:30;;;;;;;2.63;1.55;;;;;;;16.14;62.42;101300.78;5135324;28;20150;-71
2022/06/29 00:34:58;;;;;;;6.47;2.00;;;;;;;16.08;62.48;101298.78;5135155;28;20410;-71
2022/06/29 00:37:25;;;;;;;5.30;1.90;;;;;;;16.12;62.57;101299.25;5135029;28;20043;-71
2022/06/29 00:39:53;;;;;;;3.60;1.77;;;;;;;16.07;62.83;101305.22;5135101;28;20134;-71
2022/06/29 00:42:19;;;;;;;4.75;1.83;;;;;;;16.09;62.85;101289.66;5135081;28;20469;-71
2022/06/29 00:44:46;;;;;;;4.72;1.85;;;;;;;16.07;62.92;101285.44;5135088;28;20047;-71
2022/06/29 00:47:13;;;;;;;3.13;1.90;;;;;;;16.01;63.08;101273.47;5134692;28;20074;-71
2022/06/29 00:49:39;;;;;;;3.08;1.75;;;;;;;16.07;62.85;101272.75;5134623;28;20555;-71
2022/06/29 00:52:09;;;;;;;7.53;1.90;;;;;;;16.01;63.31;101270.78;5137683;27;20083;-71
2022/06/29 00:54:42;;;;;;;4.53;2.03;;;;;;;16.03;63.19;101260.63;5138700;27;20134;-71
2022/06/29 00:57:24;;;;;;;4.93;1.80;;;;;;;16.02;63.27;101266.19;5139389;27;20047;-71
2022/06/29 00:59:52;;;;;;;;;;;;;;;16.01;63.14;101265.34;5139302;27;20543;-71
2022/06/29 01:02:21;;;;;;;4.28;1.70;;;;;;;16.08;63.05;101273.59;5139636;27;20015;-71
2022/06/29 01:04:49;;;;;;;4.70;1.60;;;;;;;16.00;63.36;101269.09;5138889;27;20532;-71
2022/06/29 01:07:34;;;;;;;6.13;1.90;;;;;;;15.97;63.42;101264.03;5139630;27;20134;-71
2022/06/29 01:10:02;;;;;;;1.98;1.58;;;;;;;15.99;63.34;101270.13;5139148;27;20134;-71
2022/06/29 01:12:29;;;;;;;5.70;2.08;;;;;;;15.87;63.62;101264.28;5138551;27;20465;-71
2022/06/29 01:14:56;;;;;;;2.95;1.70;;;;;;;15.91;63.64;101259.34;5138170;27;20130;-71
2022/06/29 01:17:23;;;;;;;2.55;1.73;;;;;;;15.91;63.60;101264.78;5138592;27;20129;-71
2022/06/29 01:19:50;;;;;;;3.65;1.73;;;;;;;15.82;64.07;101255.06;5138524;27;20115;-71
2022/06/29 01:22:19;;;;;;;3.67;1.45;;;;;;;15.88;63.60;101248.91;5138433;27;20075;-71
2022/06/29 01:24:48;;;;;;;3.88;1.88;;;;;;;15.88;63.86;101240.78;5138457;27;20043;-71
2022/06/29 01:27:16;;;;;;;6.40;1.98;;;;;;;15.99;63.35;101253.06;5137884;27;20611;-71
2022/06/29 01:29:43;;;;;;;3.83;1.50;;;;;;;15.92;63.80;101269.19;5138429;27;20078;-71
2022/06/29 01:32:10;;;;;;;3.10;1.80;;;;;;;15.89;63.80;101261.41;5138254;27;20071;-71
2022/06/29 01:34:37;;;;;;;3.30;1.90;;;;;;;15.97;63.67;101258.63;5138228;27;20540;-71
2022/06/29 01:37:05;;;;;;;3.17;1.80;;;;;;;15.84;64.41;101248.41;5138265;27;20083;-71
2022/06/29 01:39:33;;;;;;;4.97;1.83;;;;;;;15.83;64.12;101252.16;5137932;27;20086;-71
2022/06/29 01:41:59;;;;;;;3.70;1.90;;;;;;;15.81;64.47;101253.34;5138214;27;20142;-71
2022/06/29 01:44:26;;;;;;;4.63;1.95;;;;;;;15.76;64.38;101262.03;5138150;27;20134;-71
2022/06/29 01:46:52;;;;;;;5.60;2.00;;;;;;;15.80;64.60;101252.50;5137857;27;20087;-71
2022/06/29 01:49:19;;;;;;;4.43;1.88;;;;;;;15.65;65.00;101260.59;5137918;27;20494;-71
2022/06/29 01:51:46;;;;;;;6.95;2.20;;;;;;;15.67;65.21;101269.38;5137564;27;20081;-71
2022/06/29 01:54:12;;;;;;;3.90;2.20;;;;;;;15.64;65.20;101258.91;5137529;27;20082;-71
2022/06/29 01:56:39;;;;;;;2.60;1.80;;;;;;;15.64;65.44;101268.88;5138511;27;20086;-71
2022/06/29 01:59:05;;;;;;;2.75;1.95;;;;;;;15.67;65.27;101266.66;5137542;27;20051;-71
2022/06/29 02:01:32;;;;;;;4.25;2.28;;;;;;;15.65;65.33;101270.56;5137632;27;20043;-71
2022/06/29 02:03:59;;;;;;;4.03;1.83;;;;;;;15.69;65.16;101264.59;5136872;27;20070;-71
2022/06/29 02:06:26;;;;;;;4.57;2.28;;;;;;;15.56;65.54;101261.63;5137474;27;20097;-71
2022/06/29 02:08:52;;;;;;;6.35;2.22;;;;;;;15.51;65.79;101258.63;5137138;27;20078;-71
2022/06/29 02:11:19;;;;;;;3.17;1.95;;;;;;;15.47;65.99;101265.44;5137422;27;20138;-71
2022/06/29 02:13:46;;;;;;;3.20;1.90;;;;;;;15.52;65.80;101265.72;5118874;27;20081;-71
2022/06/29 02:16:13;;;;;;;3.92;2.08;;;;;;;15.43;66.07;101256.84;5137202;27;20078;-71
2022/06/29 02:18:40;;;;;;;4.18;1.90;;;;;;;15.42;65.91;101251.59;5137445;27;20051;-71
2022/06/29 02:21:06;;;;;;;5.50;2.17;;;;;;;15.37;66.40;101256.72;5137355;27;20093;-71
2022/06/29 02:23:33;;;;;;;3.70;2.25;;;;;;;15.36;66.46;101255.88;5137313;27;20082;-71
2022/06/29 02:26:00;;;;;;;3.20;2.00;;;;;;;15.36;66.54;101263.13;5137275;27;20135;-71
2022/06/29 02:28:27;;;;;;;5.47;2.35;;;;;;;15.29;66.67;101267.56;5137833;27;20134;-71
2022/06/29 02:36:23;;;;;;;5.38;2.33;;;;;;;15.18;66.98;101276.91;5137093;27;20513;-71
2022/06/29 02:38:50;;;;;;;2.85;1.90;;;;;;;15.18;66.99;101272.34;5137247;27;20074;-71
2022/06/29 02:41:16;;;;;;;11.88;1.90;;;;;;;15.13;66.97;101263.94;5137838;27;20559;-71
2022/06/29 02:43:45;;;;;;;3.97;2.20;;;;;;;15.12;67.33;101270.38;5137495;27;20531;-71
2022/06/29 02:46:11;;;;;;;3.38;2.20;;;;;;;15.12;67.31;101264.09;5118282;27;20134;-71
2022/06/29 02:48:38;;;;;;;6.30;2.38;;;;;;;15.11;67.39;101265.97;5137140;27;20055;-71
2022/06/29 02:51:05;;;;;;;3.63;1.88;;;;;;;15.10;67.33;101264.28;5136447;27;20087;-71
2022/06/29 02:53:31;;;;;;;4.57;1.95;;;;;;;15.04;67.61;101254.16;5136610;27;20482;-72
2022/06/29 02:55:58;;;;;;;7.45;2.20;;;;;;;14.98;67.82;101265.69;5137470;27;20130;-71
2022/06/29 02:58:24;;;;;;;7.20;2.40;;;;;;;14.99;67.78;101261.97;5136819;27;20096;-71
2022/06/29 03:00:51;;;;;;;5.20;1.98;;;;;;;15.05;67.66;101269.38;5137254;27;20047;-71
2022/06/29 03:03:18;;;;;;;5.43;2.00;;;;;;;14.74;68.60;101261.25;5136664;27;20047;-71
2022/06/29 03:05:45;;;;;;;4.55;2.30;;;;;;;14.83;68.57;101262.03;5136404;27;20051;-71
2022/06/29 03:08:11;;;;;;;5.43;2.08;;;;;;;14.73;68.78;101264.94;5136022;27;20086;-72
2022/06/29 03:10:38;;;;;;;4.22;1.95;;;;;;;14.66;69.04;101270.16;5136278;27;20095;-72
2022/06/29 03:13:05;;;;;;;6.57;2.20;;;;;;;14.88;68.39;101267.78;5136790;27;20075;-72
2022/06/29 03:15:31;;;;;;;3.45;2.20;;;;;;;14.84;68.46;101266.41;5136050;27;20519;-71
2022/06/29 03:17:58;;;;;;;4.15;2.05;;;;;;;14.80;68.68;101270.50;5136021;27;20142;-71
2022/06/29 03:20:24;;;;;;;3.03;1.80;;;;;;;14.75;68.83;101268.31;5136559;27;20074;-71
2022/06/29 03:22:51;;;;;;;6.22;1.95;;;;;;;14.99;68.04;101253.88;5136214;27;20047;-71
2022/06/29 03:25:18;;;;;;;2.85;1.85;;;;;;;15.10;67.51;101256.19;5136518;27;20130;-71
2022/06/29 03:27:44;;;;;;;5.38;2.70;;;;;;;14.99;67.65;101270.09;5135570;27;20054;-72
2022/06/29 03:30:12;;;;;;;3.88;2.47;;;;;;;14.99;67.77;101264.69;5135974;27;20486;-71
2022/06/29 03:32:39;;;;;;;4.55;2.20;;;;;;;14.92;68.06;101253.75;5135957;27;20535;-72
2022/06/29 03:35:06;;;;;;;6.90;2.03;;;;;;;14.90;68.09;101260.31;5135638;27;20082;-71
2022/06/29 03:37:33;;;;;;;4.88;2.58;;;;;;;14.85;68.28;101251.91;5135909;27;20402;-71
2022/06/29 03:40:01;;;;;;;7.47;2.28;;;;;;;14.86;68.18;101264.41;5135715;27;20051;-71
2022/06/29 03:42:28;;;;;;;3.65;1.90;;;;;;;14.92;68.10;101263.72;5135735;27;20547;-71
2022/06/29 03:44:55;;;;;;;5.07;2.10;;;;;;;15.03;67.70;101266.00;5135329;27;20062;-71
2022/06/29 03:47:22;;;;;;;4.57;2.13;;;;;;;15.07;67.46;101261.09;5136064;27;20078;-71
2022/06/29 03:49:49;;;;;;;6.43;2.20;;;;;;;15.02;67.52;101258.94;5135521;27;20050;-71
2022/06/29 03:52:16;;;;;;;3.25;2.13;;;;;;;15.03;67.66;101254.38;5135630;27;20096;-71
2022/06/29 03:54:42;;;;;;;11.80;2.17;;;;;;;15.15;67.54;101252.94;5135083;27;20134;-71
2022/06/29 03:57:09;;;;;;;3.42;2.33;;;;;;;15.09;67.62;101259.06;5135960;27;20494;-71
2022/06/29 03:59:35;;;;;;;3.97;2.25;;;;;;;15.05;67.52;101258.59;5135038;27;20051;-71
2022/06/29 04:02:02;;;;;;;5.00;1.95;;;;;;;15.21;67.04;101263.88;5135575;27;20078;-71
2022/06/29 04:04:29;;;;;;;6.53;1.80;;;;;;;15.16;66.94;101273.56;5135465;27;20062;-71
2022/06/29 04:06:55;;;;;;;6.32;2.42;;;;;;;15.20;66.83;101275.72;5136101;27;20058;-72
2022/06/29 04:09:22;;;;;;;3.50;2.05;;;;;;;15.16;66.91;101282.50;5135380;27;20070;-71
2022/06/29 04:11:48;;;;;;;4.93;2.05;;;;;;;15.23;66.64;101279.94;5136489;27;20398;-72
2022/06/29 04:14:26;;;;;;;7.65;2.17;;;;;;;15.18;66.70;101285.00;5134932;27;20079;-72
2022/06/29 04:16:55;;;;;;;3.90;1.98;;;;;;;15.20;66.49;101283.81;5135132;27;20072;-71
2022/06/29 04:19:22;;;;;;;4.20;2.33;;;;;;;15.32;66.10;101291.53;5135287;27;20082;-71
2022/06/29 04:21:49;;;;;;;5.07;1.90;;;;;;;15.42;65.80;101286.75;5135325;27;20082;-71
2022/06/29 04:24:17;;;;;;;5.70;2.00;;;;;;;15.42;65.55;101290.28;5134995;27;20134;-71
2022/06/29 04:26:44;;;;;;;5.10;2.03;;;;;;;15.43;65.50;101291.13;5134543;27;20090;-71
2022/06/29 04:29:11;;;;;;;4.80;2.20;;;;;;;15.49;65.22;101285.84;5135137;27;20098;-71
2022/06/29 04:31:38;;;;;;;5.03;2.30;;;;;;;15.63;64.89;101276.16;5135493;28;20460;-71
2022/06/29 04:34:04;;;;;;;4.57;2.45;;;;;;;15.66;64.63;101281.19;5135419;28;20043;-71
2022/06/29 04:36:31;;;;;;;4.97;2.03;;;;;;;15.64;64.94;101279.69;5134741;28;20088;-71
2022/06/29 04:38:58;;;;;;;6.32;2.30;;;;;;;15.77;64.48;101279.94;5134758;28;20179;-71
2022/06/29 04:41:24;;;;;;;5.28;1.90;;;;;;;15.77;64.70;101279.94;5135165;28;20091;-71
2022/06/29 04:43:51;;;;;;;4.32;2.13;;;;;;;15.80;64.28;101284.16;5135674;28;20475;-72
2022/06/29 04:46:21;;;;;;;5.05;2.53;;;;;;;15.75;64.64;101292.81;5136262;28;20071;-72
2022/06/29 04:48:55;;;;;;;3.45;2.17;;;;;;;15.76;64.54;101290.94;5136110;28;20078;-72
2022/06/29 04:51:23;;;;;;;5.95;2.13;;;;;;;15.81;64.39;101291.22;5136337;28;20051;-71
2022/06/29 04:53:54;;;;;;;5.20;2.60;;;;;;;15.97;64.00;101290.28;5135463;28;20153;-71
2022/06/29 04:56:22;;;;;;;5.38;2.45;;;;;;;16.07;63.94;101294.41;5135417;28;20051;-72
2022/06/29 04:58:51;;;;;;;6.07;2.45;;;;;;;16.16;63.55;101293.31;5136109;28;20085;-71
2022/06/29 05:01:18;;;;;;;11.13;2.30;;;;;;;16.15;63.61;101301.59;5135471;28;20058;-71
2022/06/29 05:03:45;;;;;;;7.65;2.25;;;;;;;16.08;63.65;101304.19;5134988;28;20062;-71
2022/06/29 05:06:11;;;;;;;6.80;1.95;;;;;;;16.12;63.63;101305.50;5134915;28;20047;-71
2022/06/29 05:08:38;;;;;;;8.25;2.22;;;;;;;16.23;63.75;101300.69;5135635;28;20137;-71
2022/06/29 05:11:05;;;;;;;5.30;2.03;;;;;;;16.23;63.42;101301.56;5135039;28;20467;-71
2022/06/29 05:13:32;;;;;;;3.90;2.10;;;;;;;16.33;62.98;101306.69;5134799;28;20144;-71
2022/06/29 05:15:58;;;;;;;6.90;2.13;;;;;;;16.34;63.01;101300.25;5134577;27;20122;-71
2022/06/29 05:18:26;;;;;;;4.40;1.95;;;;;;;16.33;63.04;101291.31;5135013;28;20491;-71
2022/06/29 05:20:55;;;;;;;3.70;1.88;;;;;;;16.42;62.90;101289.34;5134370;28;20053;-71
2022/06/29 05:23:22;;;;;;;5.60;2.10;;;;;;;16.34;62.44;101287.56;5134474;28;20539;-71
2022/06/29 05:25:48;;;;;;;6.55;2.50;;;;;;;16.33;62.79;101285.03;5134469;28;20050;-71
2022/06/29 05:28:15;;;;;;;6.13;1.88;;;;;;;16.33;62.58;101285.88;5134116;28;20047;-71
2022/06/29 05:30:42;;;;;;;11.02;2.08;;;;;;;16.36;62.43;101280.06;5134341;28;20051;-72
2022/06/29 05:33:09;;;;;;;10.60;2.92;;;;;;;16.41;62.30;101276.84;5134392;28;20512;-72
2022/06/29 05:35:35;;;;;;;6.65;2.70;;;;;;;16.48;62.24;101269.66;5134398;28;20461;-72
2022/06/29 05:38:03;;;;;;;6.50;2.60;;;;;;;16.57;61.79;101265.84;5135711;27;20066;-72
2022/06/29 05:40:30;;;;;;;6.75;2.28;;;;;;;16.65;61.13;101264.91;5138344;27;20490;-72
2022/06/29 05:42:57;;;;;;;5.55;1.60;;;;;;;16.65;57.88;101259.50;5138235;27;20051;-72
2022/06/29 05:45:25;;;;;;;6.75;1.83;;;;;;;16.66;60.31;101253.03;5138498;27;20516;-72
2022/06/29 05:47:53;;;;;;;3.45;1.98;;;;;;;16.73;59.30;101263.97;5138041;27;20051;-72
2022/06/29 05:50:21;;;;;;;5.85;1.85;;;;;;;16.74;58.74;101260.22;5138099;27;20540;-72
2022/06/29 05:52:48;;;;;;;3.08;1.75;;;;;;;16.65;58.12;101257.63;5138229;27;20074;-72
2022/06/29 05:55:14;;;;;;;7.03;1.75;;;;;;;16.63;58.48;101258.84;5137399;27;20039;-72
2022/06/29 05:57:41;;;;;;;1.67;1.38;;;;;;;16.79;58.29;101271.38;5138297;27;20112;-72
2022/06/29 06:00:10;;;;;;;7.97;1.70;;;;;;;16.77;57.10;101271.53;5137923;27;20054;-72
2022/06/29 06:02:37;;;;;;;4.55;1.58;;;;;;;16.72;57.09;101265.84;5138141;27;20460;-72
2022/06/29 06:05:04;;;;;;;2.15;1.08;;;;;;;16.84;57.03;101260.78;5137808;27;20051;-72
2022/06/29 06:07:31;;;;;;;2.63;1.42;;;;;;;17.01;56.89;101261.41;5137771;27;20436;-72
2022/06/29 06:09:57;;;;;;;5.40;1.83;;;;;;;17.11;56.21;101257.38;5137244;27;20089;-72
2022/06/29 06:12:24;;;;;;;6.45;1.60;;;;;;;17.10;55.77;101263.84;5137597;27;20093;-72
2022/06/29 06:14:50;;;;;;;4.10;1.58;;;;;;;17.14;55.83;101250.75;5137084;27;20131;-72
2022/06/29 06:17:17;;;;;;;8.00;1.77;;;;;;;17.08;55.35;101252.34;5137483;27;20051;-72
2022/06/29 06:19:43;;;;;;;2.15;1.30;;;;;;;17.09;55.10;101248.63;5136986;27;20050;-72
2022/06/29 06:22:10;;;;;;;6.07;1.40;;;;;;;17.13;53.71;101257.19;5136805;27;20097;-72
2022/06/29 06:24:36;;;;;;;5.85;1.95;;;;;;;17.27;52.87;101247.34;5137229;27;20440;-72
2022/06/29 06:27:03;;;;;;;3.90;1.38;;;;;;;17.40;52.66;101243.94;5137114;27;20112;-72
2022/06/29 06:29:30;;;;;;;6.05;1.42;;;;;;;17.51;52.44;101247.00;5136870;27;20051;-72
2022/06/29 06:31:57;;;;;;;8.25;1.65;;;;;;;17.56;52.62;101236.41;5137192;27;20050;-72
2022/06/29 06:34:23;;;;;;;4.80;1.63;;;;;;;17.55;51.17;101242.03;5137002;27;20087;-72
2022/06/29 06:36:50;;;;;;;2.40;1.05;;;;;;;17.52;51.47;101237.00;5137452;27;20100;-72
2022/06/29 06:39:16;;;;;;;3.70;1.33;;;;;;;17.68;50.13;101231.28;5137141;27;20055;-72
2022/06/29 06:41:43;;;;;;;3.22;1.10;;;;;;;17.77;49.57;101240.16;5136846;27;20494;-72
2022/06/29 06:44:09;;;;;;;5.55;1.23;;;;;;;17.90;49.67;101250.28;5136805;27;20075;-72
2022/06/29 06:46:36;;;;;;;6.28;1.80;;;;;;;18.04;49.20;101247.47;5137803;27;20055;-73
2022/06/29 06:49:03;;;;;;;5.93;1.75;;;;;;;18.02;49.17;101240.56;5118820;27;20406;-73
2022/06/29 06:51:30;;;;;;;5.82;1.38;;;;;;;18.17;48.82;101240.47;5137569;27;20096;-72
2022/06/29 06:53:56;;;;;;;4.75;1.60;;;;;;;18.13;47.75;101245.44;5136431;27;20047;-73
2022/06/29 06:56:23;;;;;;;2.28;1.35;;;;;;;18.00;47.78;101245.34;5136472;27;20043;-73
2022/06/29 06:58:49;;;;;;;6.47;1.77;;;;;;;18.06;48.17;101230.97;5137028;27;20055;-73
2022/06/29 07:01:21;;;;;;;2.65;1.33;;;;;;;18.10;47.59;101237.72;5136605;27;20047;-73
2022/06/29 07:03:48;;;;;;;3.72;1.52;;;;;;;18.06;47.90;101239.97;5136443;27;20047;-73
2022/06/29 07:06:14;;;;;;;4.82;1.30;;;;;;;18.21;48.61;101242.63;5136433;27;20054;-73
2022/06/29 07:08:41;;;;;;;6.63;1.50;;;;;;;18.38;48.42;101237.72;5136264;27;20054;-73
2022/06/29 07:11:08;;;;;;;6.43;1.70;;;;;;;18.34;48.26;101232.88;5136299;27;20097;-73
2022/06/29 07:13:35;;;;;;;4.07;1.80;;;;;;;18.16;47.83;101233.38;5136404;27;20417;-73
2022/06/29 07:16:04;;;;;;;4.35;1.55;;;;;;;18.14;47.73;101233.56;5136460;27;20452;-73
2022/06/29 07:18:32;;;;;;;5.15;1.50;;;;;;;17.97;47.32;101234.88;5136288;27;20070;-73
2022/06/29 07:20:59;;;;;;;6.63;1.25;;;;;;;17.93;46.99;101234.44;5136504;27;20055;-73
2022/06/29 07:23:27;;;;;;;1.75;1.08;;;;;;;17.78;47.10;101230.97;5136099;27;20125;-73
2022/06/29 07:25:55;;;;;;;5.05;1.15;;;;;;;17.77;47.41;101223.88;5136415;27;20039;-72
2022/06/29 07:28:22;;;;;;;5.30;1.50;;;;;;;17.83;46.05;101229.34;5136709;27;20070;-72
2022/06/29 07:30:49;;;;;;;3.72;1.38;;;;;;;17.94;46.04;101227.97;5135811;27;20138;-72
2022/06/29 07:33:15;;;;;;;5.97;1.50;;;;;;;17.96;45.56;101223.19;5136070;27;20047;-72
2022/06/29 07:35:42;;;;;;;5.78;1.40;;;;;;;17.97;45.56;101230.28;5135908;27;20047;-72
2022/06/29 07:38:10;;;;;;;4.15;1.15;;;;;;;18.08;45.49;101220.78;5135641;27;20047;-72
2022/06/29 07:40:37;;;;;;;4.82;1.55;;;;;;;18.24;45.38;101227.81;5136226;27;20087;-72
2022/06/29 07:43:03;;;;;;;3.63;1.20;;;;;;;18.22;44.01;101221.72;5136638;27;20047;-72
2022/06/29 07:45:30;;;;;;;6.45;1.40;;;;;;;18.33;44.36;101223.88;5135753;27;20050;-72
2022/06/29 07:48:01;;;;;;;5.50;1.13;;;;;;;18.36;43.45;101218.06;5136431;27;20082;-72
2022/06/29 07:50:28;;;;;;;3.60;1.42;;;;;;;18.62;42.94;101227.38;5135802;27;20054;-72
2022/06/29 07:52:55;;;;;;;5.75;1.40;;;;;;;18.66;43.38;101215.09;5135680;27;20055;-72
2022/06/29 07:55:21;;;;;;;4.57;1.60;;;;;;;18.76;43.01;101215.56;5135746;27;20529;-72
2022/06/29 07:57:49;;;;;;;6.78;1.10;;;;;;;18.85;42.65;101210.78;5135328;27;20078;-72
2022/06/29 08:00:16;;;;;;;3.22;1.25;;;;;;;19.18;41.32;101216.38;5134409;27;20047;-72
2022/06/29 08:02:43;;;;;;;3.30;1.00;;;;;;;19.34;39.66;101204.25;5135695;27;20102;-72
2022/06/29 08:05:10;;;;;;;4.10;1.08;;;;;;;19.67;39.75;101207.00;5135500;27;20475;-72
2022/06/29 08:07:36;;;;;;;2.92;1.30;;;;;;;19.59;38.80;101208.06;5135228;27;20061;-72
2022/06/29 08:10:04;;;;;;;3.50;1.00;;;;;;;19.59;39.17;101204.47;5135666;27;20097;-72
2022/06/29 08:12:31;;;;;;;2.28;1.30;;;;;;;19.68;38.78;101200.56;5134992;27;20086;-72
2022/06/29 08:14:57;;;;;;;4.90;1.10;;;;;;;19.70;38.60;101199.31;5135064;27;20467;-72
2022/06/29 08:17:24;;;;;;;3.58;1.17;;;;;;;19.85;38.38;101204.53;5135223;27;20090;-72
2022/06/29 08:19:58;;;;;;;3.35;1.20;;;;;;;20.31;37.57;101200.91;5134981;27;20054;-72
2022/06/29 08:22:25;;;;;;;6.80;1.15;;;;;;;20.57;35.85;101207.38;5135299;27;20047;-72
2022/06/29 08:24:52;;;;;;;7.32;1.15;;;;;;;20.76;35.93;101206.44;5135493;27;20130;-72
2022/06/29 08:27:25;;;;;;;4.03;1.30;;;;;;;21.44;35.18;101207.78;5135338;27;20102;-72
2022/06/29 08:30:11;;;;;;;5.63;1.00;;;;;;;21.45;34.42;101206.72;5135860;27;20053;-73
2022/06/29 08:32:40;;;;;;;2.88;1.27;;;;;;;20.92;34.61;101205.94;5134869;27;20061;-73
2022/06/29 08:35:07;;;;;;;4.10;1.05;;;;;;;21.08;36.07;101198.34;5135112;28;20044;-73
2022/06/29 08:37:36;;;;;;;3.38;1.10;;;;;;;20.86;36.37;101195.91;5135207;28;20086;-73
2022/06/29 08:40:08;;;;;;;5.43;1.00;;;;;;;20.50;36.19;101206.56;5134992;28;20134;-73
2022/06/29 08:42:36;;;;;;;3.60;1.00;;;;;;;20.63;35.97;101203.78;5135222;28;20096;-72
2022/06/29 08:45:07;;;;;;;1.83;1.00;;;;;;;20.53;36.02;101206.97;5134949;28;20235;-73
2022/06/29 08:47:35;;;;;;;2.95;1.40;;;;;;;20.74;35.49;101194.94;5135021;28;20051;-73
2022/06/29 08:50:06;;;;;;;4.40;0.98;;;;;;;20.80;34.77;101199.53;5135182;28;20461;-72
2022/06/29 08:52:36;;;;;;;5.35;1.17;;;;;;;21.01;34.69;101194.78;5135379;28;20108;-72
2022/06/29 08:55:04;;;;;;;9.18;1.40;;;;;;;21.21;33.86;101194.69;5135409;28;20081;-72
2022/06/29 08:57:34;;;;;;;5.60;1.15;;;;;;;21.28;34.36;101192.78;5135020;28;20495;-72
2022/06/29 09:00:03;;;;;;;2.78;0.82;;;;;;;21.35;33.68;101190.81;5134954;28;20055;-73
2022/06/29 09:02:29;;;;;;;4.18;1.00;;;;;;;20.82;34.76;101191.13;5135531;28;20152;-73
2022/06/29 09:04:57;;;;;;;4.32;1.17;;;;;;;20.70;34.90;101195.56;5134415;28;20047;-73
2022/06/29 09:07:24;;;;;;;3.58;1.02;;;;;;;20.34;35.79;101186.84;5134541;28;20047;-73
2022/06/29 09:10:02;;;;;;;8.45;1.00;;;;;;;20.33;35.20;101195.25;5135123;28;20051;-73
2022/06/29 09:12:31;;;;;;;4.07;1.00;;;;;;;20.50;35.60;101192.94;5137126;27;20048;-72
2022/06/29 09:14:59;;;;;;;13.23;1.20;;;;;;;20.51;35.45;101194.59;5139363;27;20130;-73
2022/06/29 09:17:30;;;;;;;9.65;1.20;;;;;;;20.59;35.08;101195.22;5139107;27;20446;-73
2022/06/29 09:19:57;;;;;;;14.80;1.03;;;;;;;20.11;35.58;101194.69;5139149;27;20104;-72
2022/06/29 09:22:52;;;;;;;3.80;0.80;;;;;;;20.29;35.24;101192.13;5138477;27;20356;-72
2022/06/29 09:25:25;;;;;;;6.55;1.13;;;;;;;20.33;35.95;101187.91;5139139;27;20046;-73
2022/06/29 09:27:55;;;;;;;1.50;0.95;;;;;;;20.30;35.17;101193.78;5138018;27;20100;-72
2022/06/29 09:30:35;;;;;;;4.03;1.07;;;;;;;20.28;36.57;101193.16;5138445;27;20134;-72
2022/06/29 09:33:06;;;;;;;4.00;1.13;;;;;;;20.44;36.44;101179.09;5138265;27;20062;-72
2022/06/29 09:35:34;;;;;;;;;;;;;;;20.78;36.38;101179.81;5138586;27;20053;-72
2022/06/29 09:38:17;;;;;;;2.72;1.15;;;;;;;20.95;37.31;101179.31;5138453;27;20030;-72
2022/06/29 09:41:12;;;;;;;5.80;1.10;;;;;;;21.17;36.19;101175.22;5138114;27;20141;-72
2022/06/29 09:43:44;;;;;;;7.35;1.33;;;;;;;21.57;35.36;101172.22;5137953;27;20085;-72
2022/06/29 09:46:12;;;;;;;2.72;1.10;;;;;;;21.65;34.54;101171.09;5138978;27;20475;-72
2022/06/29 09:48:40;;;;;;;3.83;1.48;;;;;;;21.48;34.48;101168.06;5138142;27;20118;-72
2022/06/29 09:54:10;;;;;;;4.72;1.08;;;;;;;20.76;36.17;101168.25;5137729;27;20051;-72
2022/06/29 09:56:46;;;;;;;5.53;1.60;;;;;;;20.79;36.50;101159.66;5138300;27;20074;-72
2022/06/29 10:02:34;;;;;;;5.03;1.35;;;;;;;21.06;35.27;101165.81;5138094;27;20108;-72
2022/06/29 10:05:04;;;;;;;2.35;1.20;;;;;;;20.95;35.98;101158.31;5137695;27;20047;-72
2022/06/29 10:07:31;;;;;;;7.97;1.10;;;;;;;20.84;35.71;101168.03;5137934;27;20051;-73
2022/06/29 10:10:00;;;;;;;5.65;1.58;;;;;;;20.44;35.71;101172.81;5137925;27;20051;-73
2022/06/29 10:15:56;;;;;;;1.55;0.68;;;;;;;20.09;36.35;101170.34;5137364;27;20134;-72
2022/06/29 10:18:53;;;;;;;1.88;1.00;;;;;;;20.06;36.06;101165.31;5138825;27;20240;-72
2022/06/29 10:21:23;;;;;;;4.60;1.17;;;;;;;19.94;36.61;101156.97;5119927;27;20051;-72
2022/06/29 10:23:58;;;;;;;2.42;0.98;;;;;;;19.78;37.42;101157.41;5137123;27;20051;-72
2022/06/29 10:26:28;;;;;;;2.70;1.15;;;;;;;19.72;37.67;101150.91;5137275;27;20142;-73
2022/06/29 10:28:55;;;;;;;3.42;1.00;;;;;;;19.67;38.38;101155.31;5137293;27;20093;-73
2022/06/29 10:31:50;;;;;;;5.40;1.33;;;;;;;19.60;38.46;101152.56;5137513;27;20134;-73
2022/06/29 10:35:10;;;;;;;4.00;1.20;;;;;;;20.01;38.22;101150.69;5137762;27;20400;-72
2022/06/29 10:37:29;;;;;;;;;;;;;;;20.19;37.58;101143.50;5135415;27;20477;-73
2022/06/29 10:39:59;;;;;;;5.38;1.38;;;;;;;20.13;38.44;101143.53;5137670;27;19973;-73
2022/06/29 10:45:19;;;;;;;10.02;1.30;;;;;;;20.65;37.28;101139.78;5137216;27;20071;-72
2022/06/29 10:47:55;;;;;;;6.50;1.20;;;;;;;20.70;36.75;101138.31;5136959;27;20093;-73
2022/06/29 10:50:26;;;;;;;3.60;1.00;;;;;;;20.82;35.93;101137.41;5137333;27;20057;-72
2022/06/29 10:52:54;;;;;;;5.72;1.55;;;;;;;20.92;34.86;101132.31;5137089;27;20104;-72
2022/06/29 10:55:23;;;;;;;4.70;0.98;;;;;;;21.14;34.21;101130.09;5137033;27;20085;-72
2022/06/29 10:57:50;;;;;;;3.22;0.90;;;;;;;20.78;34.21;101128.00;5137654;27;20416;-72
2022/06/29 11:00:18;;;;;;;7.90;1.30;;;;;;;20.72;34.46;101128.03;5137755;27;20055;-72
2022/06/29 11:02:44;;;;;;;8.05;1.20;;;;;;;20.73;34.29;101122.38;5136849;27;20078;-72
2022/06/29 11:05:12;;;;;;;4.70;1.00;;;;;;;20.67;35.34;101120.50;5137035;27;20136;-72
2022/06/29 11:13:25;;;;;;;5.50;1.08;;;;;;;20.37;36.39;101112.00;5136622;27;20051;-72
2022/06/29 11:15:54;;;;;;;10.07;1.33;;;;;;;20.33;36.24;101121.69;5136037;27;20043;-72
2022/06/29 11:18:24;;;;;;;4.30;1.05;;;;;;;20.32;35.49;101118.13;5137559;27;20399;-73
2022/06/29 11:20:51;;;;;;;5.38;0.90;;;;;;;20.26;35.33;101120.88;5137127;27;20074;-72
2022/06/29 11:23:27;;;;;;;4.28;1.20;;;;;;;20.30;35.44;101114.75;5136690;27;20054;-72
2022/06/29 11:25:56;;;;;;;3.30;0.90;;;;;;;20.43;35.21;101103.00;5136806;27;20047;-72
2022/06/29 11:28:29;;;;;;;2.45;1.10;;;;;;;20.46;35.48;101101.75;5136195;27;20146;-72
2022/06/29 11:31:00;;;;;;;3.78;1.20;;;;;;;20.52;35.73;101104.41;5136031;27;20097;-72
2022/06/29 11:33:29;;;;;;;4.35;1.10;;;;;;;20.40;36.28;101098.00;5136730;27;20054;-72
2022/06/29 11:35:56;;;;;;;6.53;1.00;;;;;;;20.34;36.41;101096.09;5135159;27;20078;-72
2022/06/29 11:38:29;;;;;;;3.55;1.40;;;;;;;20.67;36.06;101095.97;5136397;27;20086;-72
2022/06/29 11:40:56;;;;;;;3.65;1.40;;;;;;;21.07;35.21;101090.25;5135804;27;20057;-72
2022/06/29 11:43:43;;;;;;;8.38;1.50;;;;;;;21.28;35.37;101092.63;5136380;27;20050;-72
2022/06/29 11:46:21;;;;;;;5.57;1.67;;;;;;;21.75;34.09;101093.06;5136258;27;20051;-73
2022/06/29 11:51:56;;;;;;;5.45;0.98;;;;;;;21.80;33.35;101084.22;5136013;27;20491;-73
2022/06/29 11:54:56;;;;;;;2.40;1.02;;;;;;;21.12;34.86;101076.84;5135980;27;20476;-73
2022/06/29 11:57:23;;;;;;;6.15;1.25;;;;;;;20.99;35.03;101075.00;5120483;27;20081;-73
2022/06/29 11:59:50;;;;;;;4.57;1.02;;;;;;;20.98;35.10;101069.78;5136131;27;20139;-73